sensor_id;sensor_type;location;lat;lon;timestamp;temperature;humidity
76384;SHT30;65204;48.606;7.598;2023-06-04T00:00:11;21.00;42.00
76384;SHT30;65204;48.606;7.598;2023-06-04T00:00:42;21.01;41.99
76384;SHT30;65204;48.606;7.598;2023-06-04T00:01:12;21.03;41.88
76384;SHT30;65204;48.606;7.598;2023-06-04T00:01:42;21.00;41.93
76384;SHT30;65204;48.606;7.598;2023-06-04T00:02:15;21.00;41.93
76384;SHT30;65204;48.606;7.598;2023-06-04T00:02:45;20.97;41.90
76384;SHT30;65204;48.606;7.598;2023-06-04T00:03:15;21.00;41.87
76384;SHT30;65204;48.606;7.598;2023-06-04T00:03:46;21.00;41.85
76384;SHT30;65204;48.606;7.598;2023-06-04T00:04:16;20.99;41.84
76384;SHT30;65204;48.606;7.598;2023-06-04T00:04:46;21.00;41.88
76384;SHT30;65204;48.606;7.598;2023-06-04T00:05:17;20.99;41.88
76384;SHT30;65204;48.606;7.598;2023-06-04T00:05:47;21.00;41.88
76384;SHT30;65204;48.606;7.598;2023-06-04T00:06:18;21.00;41.83
76384;SHT30;65204;48.606;7.598;2023-06-04T00:06:48;20.99;41.80
76384;SHT30;65204;48.606;7.598;2023-06-04T00:07:18;21.03;41.55
76384;SHT30;65204;48.606;7.598;2023-06-04T00:07:49;21.01;41.63
76384;SHT30;65204;48.606;7.598;2023-06-04T00:08:19;21.01;41.49
76384;SHT30;65204;48.606;7.598;2023-06-04T00:08:49;21.01;41.53
76384;SHT30;65204;48.606;7.598;2023-06-04T00:09:20;21.01;41.57
76384;SHT30;65204;48.606;7.598;2023-06-04T00:09:52;21.04;41.52
76384;SHT30;65204;48.606;7.598;2023-06-04T00:10:23;21.00;41.45
76384;SHT30;65204;48.606;7.598;2023-06-04T00:10:53;21.03;41.48
76384;SHT30;65204;48.606;7.598;2023-06-04T00:11:23;20.97;41.57
76384;SHT30;65204;48.606;7.598;2023-06-04T00:11:54;20.99;41.63
76384;SHT30;65204;48.606;7.598;2023-06-04T00:12:25;21.00;41.69
76384;SHT30;65204;48.606;7.598;2023-06-04T00:12:55;21.01;41.74
76384;SHT30;65204;48.606;7.598;2023-06-04T00:13:25;21.01;41.69
76384;SHT30;65204;48.606;7.598;2023-06-04T00:13:56;21.00;41.72
76384;SHT30;65204;48.606;7.598;2023-06-04T00:14:26;21.00;41.74
76384;SHT30;65204;48.606;7.598;2023-06-04T00:14:57;20.97;41.74
76384;SHT30;65204;48.606;7.598;2023-06-04T00:15:27;20.96;41.78
76384;SHT30;65204;48.606;7.598;2023-06-04T00:15:57;20.97;41.78
76384;SHT30;65204;48.606;7.598;2023-06-04T00:16:27;20.94;41.65
76384;SHT30;65204;48.606;7.598;2023-06-04T00:16:58;20.96;41.70
76384;SHT30;65204;48.606;7.598;2023-06-04T00:17:28;20.91;41.47
76384;SHT30;65204;48.606;7.598;2023-06-04T00:17:58;20.90;41.62
76384;SHT30;65204;48.606;7.598;2023-06-04T00:18:29;20.93;41.68
76384;SHT30;65204;48.606;7.598;2023-06-04T00:18:59;20.93;41.70
76384;SHT30;65204;48.606;7.598;2023-06-04T00:19:30;20.91;41.70
76384;SHT30;65204;48.606;7.598;2023-06-04T00:20:01;20.94;41.70
76384;SHT30;65204;48.606;7.598;2023-06-04T00:20:31;20.93;41.72
76384;SHT30;65204;48.606;7.598;2023-06-04T00:21:01;20.94;41.67
76384;SHT30;65204;48.606;7.598;2023-06-04T00:21:32;20.93;41.67
76384;SHT30;65204;48.606;7.598;2023-06-04T00:22:02;20.93;41.65
76384;SHT30;65204;48.606;7.598;2023-06-04T00:22:32;20.91;41.65
76384;SHT30;65204;48.606;7.598;2023-06-04T00:23:03;20.93;41.58
76384;SHT30;65204;48.606;7.598;2023-06-04T00:23:33;20.93;41.61
76384;SHT30;65204;48.606;7.598;2023-06-04T00:24:03;20.93;41.54
76384;SHT30;65204;48.606;7.598;2023-06-04T00:24:37;20.93;41.51
76384;SHT30;65204;48.606;7.598;2023-06-04T00:25:10;20.90;41.48
76384;SHT30;65204;48.606;7.598;2023-06-04T00:25:41;20.91;41.52
76384;SHT30;65204;48.606;7.598;2023-06-04T00:26:11;20.89;41.45
76384;SHT30;65204;48.606;7.598;2023-06-04T00:26:41;20.87;41.52
76384;SHT30;65204;48.606;7.598;2023-06-04T00:27:12;20.87;41.60
76384;SHT30;65204;48.606;7.598;2023-06-04T00:27:42;20.89;41.68
76384;SHT30;65204;48.606;7.598;2023-06-04T00:28:12;20.87;41.74
76384;SHT30;65204;48.606;7.598;2023-06-04T00:28:42;20.87;41.68
76384;SHT30;65204;48.606;7.598;2023-06-04T00:29:13;20.86;41.52
76384;SHT30;65204;48.606;7.598;2023-06-04T00:29:43;20.84;41.61
76384;SHT30;65204;48.606;7.598;2023-06-04T00:30:14;20.83;41.63
76384;SHT30;65204;48.606;7.598;2023-06-04T00:30:44;20.84;41.66
76384;SHT30;65204;48.606;7.598;2023-06-04T00:31:14;20.81;41.73
76384;SHT30;65204;48.606;7.598;2023-06-04T00:31:45;20.79;41.62
76384;SHT30;65204;48.606;7.598;2023-06-04T00:32:16;20.79;41.63
76384;SHT30;65204;48.606;7.598;2023-06-04T00:32:46;20.79;41.66
76384;SHT30;65204;48.606;7.598;2023-06-04T00:33:17;20.76;41.74
76384;SHT30;65204;48.606;7.598;2023-06-04T00:33:48;20.77;41.74
76384;SHT30;65204;48.606;7.598;2023-06-04T00:34:18;20.79;41.66
76384;SHT30;65204;48.606;7.598;2023-06-04T00:34:53;20.79;41.69
76384;SHT30;65204;48.606;7.598;2023-06-04T00:35:23;20.80;41.68
76384;SHT30;65204;48.606;7.598;2023-06-04T00:35:54;20.80;41.66
76384;SHT30;65204;48.606;7.598;2023-06-04T00:36:24;20.76;41.47
76384;SHT30;65204;48.606;7.598;2023-06-04T00:36:55;20.76;41.42
76384;SHT30;65204;48.606;7.598;2023-06-04T00:37:25;20.76;41.48
76384;SHT30;65204;48.606;7.598;2023-06-04T00:37:56;20.76;41.45
76384;SHT30;65204;48.606;7.598;2023-06-04T00:38:26;20.79;41.47
76384;SHT30;65204;48.606;7.598;2023-06-04T00:38:57;20.76;41.49
76384;SHT30;65204;48.606;7.598;2023-06-04T00:39:27;20.76;41.51
76384;SHT30;65204;48.606;7.598;2023-06-04T00:39:58;20.79;41.47
76384;SHT30;65204;48.606;7.598;2023-06-04T00:40:29;20.77;41.50
76384;SHT30;65204;48.606;7.598;2023-06-04T00:40:59;20.63;41.62
76384;SHT30;65204;48.606;7.598;2023-06-04T00:41:30;20.70;41.61
76384;SHT30;65204;48.606;7.598;2023-06-04T00:42:00;20.70;41.52
76384;SHT30;65204;48.606;7.598;2023-06-04T00:42:31;20.63;41.54
76384;SHT30;65204;48.606;7.598;2023-06-04T00:43:02;20.66;41.54
76384;SHT30;65204;48.606;7.598;2023-06-04T00:43:32;20.65;41.55
76384;SHT30;65204;48.606;7.598;2023-06-04T00:44:03;20.69;41.59
76384;SHT30;65204;48.606;7.598;2023-06-04T00:44:36;20.69;41.58
76384;SHT30;65204;48.606;7.598;2023-06-04T00:45:07;20.60;41.66
76384;SHT30;65204;48.606;7.598;2023-06-04T00:45:40;20.63;41.56
76384;SHT30;65204;48.606;7.598;2023-06-04T00:46:12;20.63;41.55
76384;SHT30;65204;48.606;7.598;2023-06-04T00:46:48;20.63;41.56
76384;SHT30;65204;48.606;7.598;2023-06-04T00:47:20;20.62;41.56
76384;SHT30;65204;48.606;7.598;2023-06-04T00:47:51;20.65;41.56
76384;SHT30;65204;48.606;7.598;2023-06-04T00:48:21;20.62;41.56
76384;SHT30;65204;48.606;7.598;2023-06-04T00:48:52;20.63;41.55
76384;SHT30;65204;48.606;7.598;2023-06-04T00:49:23;20.63;41.54
76384;SHT30;65204;48.606;7.598;2023-06-04T00:49:56;20.63;41.56
76384;SHT30;65204;48.606;7.598;2023-06-04T00:50:28;20.62;41.59
76384;SHT30;65204;48.606;7.598;2023-06-04T00:50:58;20.63;41.60
76384;SHT30;65204;48.606;7.598;2023-06-04T00:51:30;20.66;41.61
76384;SHT30;65204;48.606;7.598;2023-06-04T00:52:01;20.65;41.70
76384;SHT30;65204;48.606;7.598;2023-06-04T00:52:32;20.63;41.72
76384;SHT30;65204;48.606;7.598;2023-06-04T00:53:02;20.57;41.77
76384;SHT30;65204;48.606;7.598;2023-06-04T00:53:33;20.60;41.81
76384;SHT30;65204;48.606;7.598;2023-06-04T00:54:04;20.56;41.85
76384;SHT30;65204;48.606;7.598;2023-06-04T00:54:38;20.56;41.84
76384;SHT30;65204;48.606;7.598;2023-06-04T00:55:09;20.52;41.79
76384;SHT30;65204;48.606;7.598;2023-06-04T00:55:40;20.56;41.76
76384;SHT30;65204;48.606;7.598;2023-06-04T00:56:12;20.55;41.81
76384;SHT30;65204;48.606;7.598;2023-06-04T00:56:42;20.52;41.90
76384;SHT30;65204;48.606;7.598;2023-06-04T00:57:13;20.52;41.90
76384;SHT30;65204;48.606;7.598;2023-06-04T00:57:44;20.50;41.95
76384;SHT30;65204;48.606;7.598;2023-06-04T00:58:14;20.48;41.90
76384;SHT30;65204;48.606;7.598;2023-06-04T00:58:46;20.48;41.97
76384;SHT30;65204;48.606;7.598;2023-06-04T00:59:17;20.48;41.89
76384;SHT30;65204;48.606;7.598;2023-06-04T00:59:48;20.46;41.92
76384;SHT30;65204;48.606;7.598;2023-06-04T01:00:19;20.43;41.95
76384;SHT30;65204;48.606;7.598;2023-06-04T01:00:51;20.45;41.99
76384;SHT30;65204;48.606;7.598;2023-06-04T01:02:16;20.40;41.97
76384;SHT30;65204;48.606;7.598;2023-06-04T01:02:52;20.42;41.92
76384;SHT30;65204;48.606;7.598;2023-06-04T01:03:25;20.42;41.90
76384;SHT30;65204;48.606;7.598;2023-06-04T01:04:00;20.43;41.90
76384;SHT30;65204;48.606;7.598;2023-06-04T01:04:45;20.42;42.00
76384;SHT30;65204;48.606;7.598;2023-06-04T01:05:29;20.42;41.90
76384;SHT30;65204;48.606;7.598;2023-06-04T01:07:03;20.30;42.01
76384;SHT30;65204;48.606;7.598;2023-06-04T01:07:35;20.28;42.04
76384;SHT30;65204;48.606;7.598;2023-06-04T01:08:06;20.25;42.02
76384;SHT30;65204;48.606;7.598;2023-06-04T01:08:39;20.24;42.14
76384;SHT30;65204;48.606;7.598;2023-06-04T01:09:13;20.26;42.17
76384;SHT30;65204;48.606;7.598;2023-06-04T01:09:45;20.28;42.26
76384;SHT30;65204;48.606;7.598;2023-06-04T01:10:15;20.26;42.31
76384;SHT30;65204;48.606;7.598;2023-06-04T01:10:52;20.25;42.15
76384;SHT30;65204;48.606;7.598;2023-06-04T01:11:37;20.19;42.22
76384;SHT30;65204;48.606;7.598;2023-06-04T01:12:08;20.22;42.19
76384;SHT30;65204;48.606;7.598;2023-06-04T01:12:42;20.21;42.19
76384;SHT30;65204;48.606;7.598;2023-06-04T01:13:12;20.19;42.15
76384;SHT30;65204;48.606;7.598;2023-06-04T01:13:43;20.18;42.08
76384;SHT30;65204;48.606;7.598;2023-06-04T01:14:13;20.22;42.12
76384;SHT30;65204;48.606;7.598;2023-06-04T01:14:46;20.25;42.24
76384;SHT30;65204;48.606;7.598;2023-06-04T01:15:16;20.26;42.19
76384;SHT30;65204;48.606;7.598;2023-06-04T01:15:46;20.22;42.15
76384;SHT30;65204;48.606;7.598;2023-06-04T01:16:17;20.19;42.18
76384;SHT30;65204;48.606;7.598;2023-06-04T01:16:56;20.21;42.08
76384;SHT30;65204;48.606;7.598;2023-06-04T01:17:37;20.19;42.12
76384;SHT30;65204;48.606;7.598;2023-06-04T01:18:09;20.22;42.15
76384;SHT30;65204;48.606;7.598;2023-06-04T01:18:41;20.21;42.09
76384;SHT30;65204;48.606;7.598;2023-06-04T01:20:25;20.16;42.23
76384;SHT30;65204;48.606;7.598;2023-06-04T01:21:02;20.18;42.26
76384;SHT30;65204;48.606;7.598;2023-06-04T01:21:37;20.16;42.18
76384;SHT30;65204;48.606;7.598;2023-06-04T01:22:11;20.16;42.17
76384;SHT30;65204;48.606;7.598;2023-06-04T01:23:34;20.18;41.99
76384;SHT30;65204;48.606;7.598;2023-06-04T01:24:09;20.11;42.13
76384;SHT30;65204;48.606;7.598;2023-06-04T01:24:41;20.14;42.19
76384;SHT30;65204;48.606;7.598;2023-06-04T01:25:23;20.15;42.08
76384;SHT30;65204;48.606;7.598;2023-06-04T01:25:56;20.15;42.03
76384;SHT30;65204;48.606;7.598;2023-06-04T01:26:29;20.18;41.97
76384;SHT30;65204;48.606;7.598;2023-06-04T01:27:00;20.11;42.08
76384;SHT30;65204;48.606;7.598;2023-06-04T01:27:31;20.11;42.15
76384;SHT30;65204;48.606;7.598;2023-06-04T01:28:02;20.11;42.13
76384;SHT30;65204;48.606;7.598;2023-06-04T01:28:34;20.09;42.15
76384;SHT30;65204;48.606;7.598;2023-06-04T01:29:05;20.06;42.18
76384;SHT30;65204;48.606;7.598;2023-06-04T01:29:36;20.08;42.22
76384;SHT30;65204;48.606;7.598;2023-06-04T01:30:08;20.09;42.18
76384;SHT30;65204;48.606;7.598;2023-06-04T01:30:41;20.04;42.11
76384;SHT30;65204;48.606;7.598;2023-06-04T01:31:15;20.06;42.11
76384;SHT30;65204;48.606;7.598;2023-06-04T01:31:46;20.05;42.20
76384;SHT30;65204;48.606;7.598;2023-06-04T01:32:19;20.04;42.31
76384;SHT30;65204;48.606;7.598;2023-06-04T01:32:49;20.02;42.39
76384;SHT30;65204;48.606;7.598;2023-06-04T01:33:19;20.04;42.43
76384;SHT30;65204;48.606;7.598;2023-06-04T01:33:56;20.08;42.39
76384;SHT30;65204;48.606;7.598;2023-06-04T01:34:28;20.04;42.36
76384;SHT30;65204;48.606;7.598;2023-06-04T01:34:59;20.08;42.35
76384;SHT30;65204;48.606;7.598;2023-06-04T01:35:30;20.04;42.36
76384;SHT30;65204;48.606;7.598;2023-06-04T01:36:03;20.01;42.41
76384;SHT30;65204;48.606;7.598;2023-06-04T01:36:33;20.01;42.40
76384;SHT30;65204;48.606;7.598;2023-06-04T01:37:04;20.02;42.44
76384;SHT30;65204;48.606;7.598;2023-06-04T01:37:35;20.02;42.37
76384;SHT30;65204;48.606;7.598;2023-06-04T01:38:07;20.05;42.36
76384;SHT30;65204;48.606;7.598;2023-06-04T01:38:37;20.06;42.36
76384;SHT30;65204;48.606;7.598;2023-06-04T01:39:07;20.06;42.36
76384;SHT30;65204;48.606;7.598;2023-06-04T01:39:38;20.05;42.35
76384;SHT30;65204;48.606;7.598;2023-06-04T01:40:08;20.05;42.35
76384;SHT30;65204;48.606;7.598;2023-06-04T01:40:39;20.04;42.42
76384;SHT30;65204;48.606;7.598;2023-06-04T01:41:09;20.02;42.35
76384;SHT30;65204;48.606;7.598;2023-06-04T01:41:40;20.01;42.40
76384;SHT30;65204;48.606;7.598;2023-06-04T01:42:10;19.98;42.53
76384;SHT30;65204;48.606;7.598;2023-06-04T01:42:41;19.95;42.46
76384;SHT30;65204;48.606;7.598;2023-06-04T01:43:12;19.95;42.55
76384;SHT30;65204;48.606;7.598;2023-06-04T01:43:42;19.94;42.55
76384;SHT30;65204;48.606;7.598;2023-06-04T01:44:12;19.95;42.62
76384;SHT30;65204;48.606;7.598;2023-06-04T01:44:43;19.92;42.72
76384;SHT30;65204;48.606;7.598;2023-06-04T01:45:13;19.91;42.65
76384;SHT30;65204;48.606;7.598;2023-06-04T01:45:44;19.94;42.68
76384;SHT30;65204;48.606;7.598;2023-06-04T01:46:14;19.91;42.65
76384;SHT30;65204;48.606;7.598;2023-06-04T01:46:44;19.88;42.46
76384;SHT30;65204;48.606;7.598;2023-06-04T01:47:15;19.88;42.63
76384;SHT30;65204;48.606;7.598;2023-06-04T01:47:45;19.88;42.62
76384;SHT30;65204;48.606;7.598;2023-06-04T01:48:16;19.87;42.72
76384;SHT30;65204;48.606;7.598;2023-06-04T01:48:46;19.85;42.78
76384;SHT30;65204;48.606;7.598;2023-06-04T01:49:19;19.84;42.78
76384;SHT30;65204;48.606;7.598;2023-06-04T01:49:49;19.84;42.66
76384;SHT30;65204;48.606;7.598;2023-06-04T01:50:20;19.87;42.71
76384;SHT30;65204;48.606;7.598;2023-06-04T01:50:50;19.84;42.73
76384;SHT30;65204;48.606;7.598;2023-06-04T01:51:20;19.85;42.71
76384;SHT30;65204;48.606;7.598;2023-06-04T01:51:51;19.84;42.60
76384;SHT30;65204;48.606;7.598;2023-06-04T01:52:21;19.85;42.65
76384;SHT30;65204;48.606;7.598;2023-06-04T01:52:51;19.84;42.48
76384;SHT30;65204;48.606;7.598;2023-06-04T01:53:22;19.85;42.50
76384;SHT30;65204;48.606;7.598;2023-06-04T01:53:52;19.87;42.46
76384;SHT30;65204;48.606;7.598;2023-06-04T01:54:22;19.88;42.34
76384;SHT30;65204;48.606;7.598;2023-06-04T01:54:53;19.85;42.30
76384;SHT30;65204;48.606;7.598;2023-06-04T01:55:24;19.89;42.37
76384;SHT30;65204;48.606;7.598;2023-06-04T01:55:59;19.91;42.37
76384;SHT30;65204;48.606;7.598;2023-06-04T01:56:31;19.88;42.42
76384;SHT30;65204;48.606;7.598;2023-06-04T01:57:02;19.89;42.32
76384;SHT30;65204;48.606;7.598;2023-06-04T01:57:34;19.89;42.31
76384;SHT30;65204;48.606;7.598;2023-06-04T01:58:06;19.89;42.32
76384;SHT30;65204;48.606;7.598;2023-06-04T01:58:37;19.89;42.25
76384;SHT30;65204;48.606;7.598;2023-06-04T01:59:07;19.88;42.26
76384;SHT30;65204;48.606;7.598;2023-06-04T01:59:37;19.91;42.27
76384;SHT30;65204;48.606;7.598;2023-06-04T02:00:09;19.88;42.30
76384;SHT30;65204;48.606;7.598;2023-06-04T02:00:40;19.88;42.34
76384;SHT30;65204;48.606;7.598;2023-06-04T02:01:12;19.88;42.40
76384;SHT30;65204;48.606;7.598;2023-06-04T02:01:43;19.87;42.37
76384;SHT30;65204;48.606;7.598;2023-06-04T02:02:14;19.87;42.31
76384;SHT30;65204;48.606;7.598;2023-06-04T02:02:45;19.91;42.33
76384;SHT30;65204;48.606;7.598;2023-06-04T02:03:18;19.89;42.32
76384;SHT30;65204;48.606;7.598;2023-06-04T02:03:48;19.88;42.19
76384;SHT30;65204;48.606;7.598;2023-06-04T02:04:19;19.88;42.18
76384;SHT30;65204;48.606;7.598;2023-06-04T02:04:51;19.88;42.18
76384;SHT30;65204;48.606;7.598;2023-06-04T02:05:22;19.88;42.17
76384;SHT30;65204;48.606;7.598;2023-06-04T02:05:52;19.85;42.07
76384;SHT30;65204;48.606;7.598;2023-06-04T02:06:23;19.84;42.20
76384;SHT30;65204;48.606;7.598;2023-06-04T02:06:55;19.78;42.10
76384;SHT30;65204;48.606;7.598;2023-06-04T02:07:26;19.79;42.12
76384;SHT30;65204;48.606;7.598;2023-06-04T02:07:57;19.82;42.12
76384;SHT30;65204;48.606;7.598;2023-06-04T02:08:27;19.81;42.19
76384;SHT30;65204;48.606;7.598;2023-06-04T02:08:57;19.78;42.21
76384;SHT30;65204;48.606;7.598;2023-06-04T02:09:28;19.81;42.17
76384;SHT30;65204;48.606;7.598;2023-06-04T02:09:58;19.79;42.20
76384;SHT30;65204;48.606;7.598;2023-06-04T02:10:28;19.79;42.20
76384;SHT30;65204;48.606;7.598;2023-06-04T02:10:59;19.78;42.24
76384;SHT30;65204;48.606;7.598;2023-06-04T02:11:29;19.78;42.17
76384;SHT30;65204;48.606;7.598;2023-06-04T02:12:00;19.81;42.15
76384;SHT30;65204;48.606;7.598;2023-06-04T02:12:30;19.79;42.12
76384;SHT30;65204;48.606;7.598;2023-06-04T02:13:02;19.79;42.07
76384;SHT30;65204;48.606;7.598;2023-06-04T02:13:34;19.79;42.06
76384;SHT30;65204;48.606;7.598;2023-06-04T02:14:04;19.79;42.08
76384;SHT30;65204;48.606;7.598;2023-06-04T02:14:34;19.78;42.15
76384;SHT30;65204;48.606;7.598;2023-06-04T02:15:06;19.78;42.27
76384;SHT30;65204;48.606;7.598;2023-06-04T02:15:36;19.75;42.31
76384;SHT30;65204;48.606;7.598;2023-06-04T02:16:07;19.77;42.22
76384;SHT30;65204;48.606;7.598;2023-06-04T02:16:37;19.75;42.08
76384;SHT30;65204;48.606;7.598;2023-06-04T02:17:08;19.78;42.08
76384;SHT30;65204;48.606;7.598;2023-06-04T02:17:46;19.77;42.22
76384;SHT30;65204;48.606;7.598;2023-06-04T02:18:19;19.79;42.21
76384;SHT30;65204;48.606;7.598;2023-06-04T02:18:52;19.79;42.21
76384;SHT30;65204;48.606;7.598;2023-06-04T02:19:22;19.79;42.20
76384;SHT30;65204;48.606;7.598;2023-06-04T02:19:52;19.79;42.21
76384;SHT30;65204;48.606;7.598;2023-06-04T02:20:23;19.79;42.15
76384;SHT30;65204;48.606;7.598;2023-06-04T02:20:53;19.81;42.16
76384;SHT30;65204;48.606;7.598;2023-06-04T02:21:23;19.82;42.18
76384;SHT30;65204;48.606;7.598;2023-06-04T02:21:54;19.81;41.96
76384;SHT30;65204;48.606;7.598;2023-06-04T02:22:25;19.81;42.01
76384;SHT30;65204;48.606;7.598;2023-06-04T02:22:55;19.81;42.01
76384;SHT30;65204;48.606;7.598;2023-06-04T02:23:26;19.81;42.12
76384;SHT30;65204;48.606;7.598;2023-06-04T02:23:56;19.81;42.11
76384;SHT30;65204;48.606;7.598;2023-06-04T02:24:26;19.78;41.99
76384;SHT30;65204;48.606;7.598;2023-06-04T02:24:57;19.79;42.03
76384;SHT30;65204;48.606;7.598;2023-06-04T02:25:27;19.78;42.00
76384;SHT30;65204;48.606;7.598;2023-06-04T02:25:57;19.78;42.00
76384;SHT30;65204;48.606;7.598;2023-06-04T02:26:28;19.77;42.08
76384;SHT30;65204;48.606;7.598;2023-06-04T02:26:58;19.75;42.08
76384;SHT30;65204;48.606;7.598;2023-06-04T02:27:28;19.78;42.06
76384;SHT30;65204;48.606;7.598;2023-06-04T02:27:59;19.75;42.11
76384;SHT30;65204;48.606;7.598;2023-06-04T02:28:29;19.77;42.14
76384;SHT30;65204;48.606;7.598;2023-06-04T02:28:59;19.77;42.20
76384;SHT30;65204;48.606;7.598;2023-06-04T02:29:30;19.77;42.23
76384;SHT30;65204;48.606;7.598;2023-06-04T02:30:01;19.77;42.19
76384;SHT30;65204;48.606;7.598;2023-06-04T02:30:31;19.79;42.25
76384;SHT30;65204;48.606;7.598;2023-06-04T02:31:02;19.77;42.18
76384;SHT30;65204;48.606;7.598;2023-06-04T02:31:32;19.78;42.16
76384;SHT30;65204;48.606;7.598;2023-06-04T02:32:03;19.77;42.26
76384;SHT30;65204;48.606;7.598;2023-06-04T02:32:34;19.77;42.39
76384;SHT30;65204;48.606;7.598;2023-06-04T02:33:06;19.75;42.31
76384;SHT30;65204;48.606;7.598;2023-06-04T02:33:37;19.77;42.39
76384;SHT30;65204;48.606;7.598;2023-06-04T02:34:08;19.71;42.44
76384;SHT30;65204;48.606;7.598;2023-06-04T02:34:38;19.71;42.45
76384;SHT30;65204;48.606;7.598;2023-06-04T02:35:08;19.71;42.48
76384;SHT30;65204;48.606;7.598;2023-06-04T02:35:39;19.70;42.41
76384;SHT30;65204;48.606;7.598;2023-06-04T02:36:09;19.70;42.37
76384;SHT30;65204;48.606;7.598;2023-06-04T02:36:40;19.71;42.35
76384;SHT30;65204;48.606;7.598;2023-06-04T02:37:10;19.70;42.20
76384;SHT30;65204;48.606;7.598;2023-06-04T02:37:40;19.71;42.18
76384;SHT30;65204;48.606;7.598;2023-06-04T02:38:11;19.70;42.25
76384;SHT30;65204;48.606;7.598;2023-06-04T02:38:41;19.67;42.09
76384;SHT30;65204;48.606;7.598;2023-06-04T02:39:12;19.68;42.05
76384;SHT30;65204;48.606;7.598;2023-06-04T02:39:42;19.70;42.07
76384;SHT30;65204;48.606;7.598;2023-06-04T02:40:12;19.67;42.14
76384;SHT30;65204;48.606;7.598;2023-06-04T02:40:43;19.68;42.26
76384;SHT30;65204;48.606;7.598;2023-06-04T02:41:14;19.68;42.26
76384;SHT30;65204;48.606;7.598;2023-06-04T02:41:44;19.68;42.19
76384;SHT30;65204;48.606;7.598;2023-06-04T02:42:14;19.65;42.15
76384;SHT30;65204;48.606;7.598;2023-06-04T02:42:45;19.64;42.20
76384;SHT30;65204;48.606;7.598;2023-06-04T02:43:15;19.65;42.30
76384;SHT30;65204;48.606;7.598;2023-06-04T02:43:45;19.64;42.22
76384;SHT30;65204;48.606;7.598;2023-06-04T02:44:16;19.63;42.32
76384;SHT30;65204;48.606;7.598;2023-06-04T02:44:46;19.61;42.43
76384;SHT30;65204;48.606;7.598;2023-06-04T02:45:17;19.58;42.40
76384;SHT30;65204;48.606;7.598;2023-06-04T02:45:47;19.60;42.44
76384;SHT30;65204;48.606;7.598;2023-06-04T02:46:17;19.58;42.52
76384;SHT30;65204;48.606;7.598;2023-06-04T02:46:48;19.57;42.53
76384;SHT30;65204;48.606;7.598;2023-06-04T02:47:18;19.55;42.55
76384;SHT30;65204;48.606;7.598;2023-06-04T02:47:49;19.54;42.67
76384;SHT30;65204;48.606;7.598;2023-06-04T02:48:20;19.53;42.60
76384;SHT30;65204;48.606;7.598;2023-06-04T02:48:50;19.55;42.63
76384;SHT30;65204;48.606;7.598;2023-06-04T02:49:20;19.54;42.66
76384;SHT30;65204;48.606;7.598;2023-06-04T02:49:51;19.54;42.69
76384;SHT30;65204;48.606;7.598;2023-06-04T02:50:22;19.53;42.84
76384;SHT30;65204;48.606;7.598;2023-06-04T02:50:52;19.50;42.80
76384;SHT30;65204;48.606;7.598;2023-06-04T02:51:22;19.46;42.81
76384;SHT30;65204;48.606;7.598;2023-06-04T02:51:53;19.41;42.83
76384;SHT30;65204;48.606;7.598;2023-06-04T02:52:23;19.43;42.77
76384;SHT30;65204;48.606;7.598;2023-06-04T02:52:55;19.41;42.81
76384;SHT30;65204;48.606;7.598;2023-06-04T02:53:25;19.41;42.97
76384;SHT30;65204;48.606;7.598;2023-06-04T02:53:55;19.43;43.05
76384;SHT30;65204;48.606;7.598;2023-06-04T02:54:26;19.40;42.98
76384;SHT30;65204;48.606;7.598;2023-06-04T02:54:56;19.41;42.98
76384;SHT30;65204;48.606;7.598;2023-06-04T02:55:27;19.37;42.88
76384;SHT30;65204;48.606;7.598;2023-06-04T02:55:57;19.40;42.83
76384;SHT30;65204;48.606;7.598;2023-06-04T02:56:27;19.41;42.79
76384;SHT30;65204;48.606;7.598;2023-06-04T02:56:58;19.37;42.67
76384;SHT30;65204;48.606;7.598;2023-06-04T02:57:28;19.37;42.71
76384;SHT30;65204;48.606;7.598;2023-06-04T02:57:58;19.37;42.64
76384;SHT30;65204;48.606;7.598;2023-06-04T02:58:29;19.40;42.52
76384;SHT30;65204;48.606;7.598;2023-06-04T02:58:59;19.40;42.58
76384;SHT30;65204;48.606;7.598;2023-06-04T02:59:29;19.41;42.62
76384;SHT30;65204;48.606;7.598;2023-06-04T03:00:00;19.41;42.62
76384;SHT30;65204;48.606;7.598;2023-06-04T03:00:31;19.46;42.72
76384;SHT30;65204;48.606;7.598;2023-06-04T03:01:01;19.40;42.69
76384;SHT30;65204;48.606;7.598;2023-06-04T03:01:32;19.41;42.62
76384;SHT30;65204;48.606;7.598;2023-06-04T03:02:03;19.37;42.70
76384;SHT30;65204;48.606;7.598;2023-06-04T03:02:33;19.37;42.86
76384;SHT30;65204;48.606;7.598;2023-06-04T03:03:04;19.36;42.93
76384;SHT30;65204;48.606;7.598;2023-06-04T03:03:35;19.33;42.98
76384;SHT30;65204;48.606;7.598;2023-06-04T03:04:05;19.31;43.05
76384;SHT30;65204;48.606;7.598;2023-06-04T03:04:40;19.30;43.09
76384;SHT30;65204;48.606;7.598;2023-06-04T03:05:13;19.31;43.09
76384;SHT30;65204;48.606;7.598;2023-06-04T03:05:43;19.28;43.13
76384;SHT30;65204;48.606;7.598;2023-06-04T03:06:15;19.31;43.10
76384;SHT30;65204;48.606;7.598;2023-06-04T03:06:45;19.30;43.23
76384;SHT30;65204;48.606;7.598;2023-06-04T03:07:16;19.28;43.20
76384;SHT30;65204;48.606;7.598;2023-06-04T03:07:50;19.26;43.35
76384;SHT30;65204;48.606;7.598;2023-06-04T03:08:20;19.27;43.33
76384;SHT30;65204;48.606;7.598;2023-06-04T03:08:51;19.24;43.28
76384;SHT30;65204;48.606;7.598;2023-06-04T03:09:22;19.24;43.27
76384;SHT30;65204;48.606;7.598;2023-06-04T03:09:52;19.23;43.37
76384;SHT30;65204;48.606;7.598;2023-06-04T03:10:22;19.26;43.42
76384;SHT30;65204;48.606;7.598;2023-06-04T03:10:53;19.20;43.49
76384;SHT30;65204;48.606;7.598;2023-06-04T03:11:23;19.23;43.43
76384;SHT30;65204;48.606;7.598;2023-06-04T03:11:53;19.20;43.39
76384;SHT30;65204;48.606;7.598;2023-06-04T03:12:24;19.17;43.36
76384;SHT30;65204;48.606;7.598;2023-06-04T03:12:54;19.22;43.36
76384;SHT30;65204;48.606;7.598;2023-06-04T03:13:24;19.19;43.35
76384;SHT30;65204;48.606;7.598;2023-06-04T03:13:55;19.16;43.19
76384;SHT30;65204;48.606;7.598;2023-06-04T03:14:25;19.20;43.24
76384;SHT30;65204;48.606;7.598;2023-06-04T03:15:02;19.23;43.17
76384;SHT30;65204;48.606;7.598;2023-06-04T03:15:33;19.22;43.12
76384;SHT30;65204;48.606;7.598;2023-06-04T03:16:04;19.20;43.12
76384;SHT30;65204;48.606;7.598;2023-06-04T03:16:39;19.17;43.30
76384;SHT30;65204;48.606;7.598;2023-06-04T03:17:09;19.16;43.41
76384;SHT30;65204;48.606;7.598;2023-06-04T03:17:43;19.13;43.40
76384;SHT30;65204;48.606;7.598;2023-06-04T03:18:14;19.12;43.31
76384;SHT30;65204;48.606;7.598;2023-06-04T03:18:44;19.12;43.20
76384;SHT30;65204;48.606;7.598;2023-06-04T03:19:15;19.12;43.36
76384;SHT30;65204;48.606;7.598;2023-06-04T03:19:47;19.09;43.36
76384;SHT30;65204;48.606;7.598;2023-06-04T03:20:18;19.12;43.35
76384;SHT30;65204;48.606;7.598;2023-06-04T03:20:48;19.12;43.40